CPS3166 KMRY-KOAK
Flight info
| Callsign | CPS3166 |
|---|---|
| Flight time | 0h 27m |
| Altitude | 11000 |
| Route | SNS V111 KARNN/N0200F100 V301 SUNOL |
| Aircraft | C408/M-SDFGRY/S |
Departure
| Time | 2026-05-03 20:15 |
|---|---|
| Airport | Monterey Regional Airport (KMRY) |
Arrival
| Time | 2026-05-03 20:42 |
|---|---|
| Airport | San Francisco Bay Oakland International Airport (KOAK) |
| Time | Latitude | Longitude | Altitude | Speed | Heading |
|---|---|---|---|---|---|
| 2026-05-03 20:15 | 36.75061 | -121.54584 | 10993 ft | 211 kts | 31° |
| 2026-05-03 20:15 | 36.76357 | -121.53727 | 10993 ft | 210 kts | 31° |
| 2026-05-03 20:15 | 36.77646 | -121.52874 | 10994 ft | 210 kts | 31° |
| 2026-05-03 20:15 | 36.78929 | -121.52023 | 10985 ft | 209 kts | 31° |
| 2026-05-03 20:16 | 36.80217 | -121.51168 | 10982 ft | 211 kts | 31° |
| 2026-05-03 20:16 | 36.81514 | -121.50310 | 10982 ft | 211 kts | 32° |
| 2026-05-03 20:16 | 36.82788 | -121.49464 | 10991 ft | 210 kts | 31° |
| 2026-05-03 20:16 | 36.84085 | -121.48604 | 10992 ft | 212 kts | 31° |
| 2026-05-03 20:17 | 36.85386 | -121.47741 | 10992 ft | 212 kts | 31° |
| 2026-05-03 20:17 | 36.86688 | -121.46876 | 10995 ft | 212 kts | 32° |
| 2026-05-03 20:17 | 36.87994 | -121.46009 | 10994 ft | 212 kts | 31° |
| 2026-05-03 20:17 | 36.89298 | -121.45142 | 10997 ft | 212 kts | 31° |
| 2026-05-03 20:18 | 36.90594 | -121.44282 | 11000 ft | 210 kts | 33° |
| 2026-05-03 20:18 | 36.91880 | -121.43426 | 10999 ft | 209 kts | 33° |
| 2026-05-03 20:18 | 36.93164 | -121.42572 | 10996 ft | 209 kts | 33° |
| 2026-05-03 20:18 | 36.94446 | -121.41718 | 10996 ft | 209 kts | 33° |
| 2026-05-03 20:19 | 36.95732 | -121.40862 | 10997 ft | 209 kts | 33° |
| 2026-05-03 20:19 | 36.97018 | -121.40005 | 10999 ft | 210 kts | 32° |
| 2026-05-03 20:19 | 36.98310 | -121.39145 | 10999 ft | 210 kts | 32° |
| 2026-05-03 20:19 | 36.99599 | -121.38286 | 10997 ft | 210 kts | 33° |
| 2026-05-03 20:20 | 37.00886 | -121.37427 | 10993 ft | 210 kts | 32° |
| 2026-05-03 20:20 | 37.02174 | -121.36569 | 10992 ft | 210 kts | 33° |
| 2026-05-03 20:20 | 37.03463 | -121.35707 | 10990 ft | 210 kts | 32° |
| 2026-05-03 20:20 | 37.04751 | -121.34849 | 10981 ft | 208 kts | 32° |
| 2026-05-03 20:21 | 37.06027 | -121.33998 | 10990 ft | 209 kts | 32° |
| 2026-05-03 20:21 | 37.07311 | -121.33137 | 10986 ft | 209 kts | 33° |
| 2026-05-03 20:21 | 37.08597 | -121.32278 | 10986 ft | 210 kts | 32° |
| 2026-05-03 20:21 | 37.09885 | -121.31418 | 10981 ft | 209 kts | 33° |
| 2026-05-03 20:22 | 37.11168 | -121.30561 | 10973 ft | 209 kts | 33° |
| 2026-05-03 20:22 | 37.12450 | -121.29701 | 10963 ft | 209 kts | 32° |
| 2026-05-03 20:22 | 37.13834 | -121.29118 | 10951 ft | 214 kts | 11° |
| 2026-05-03 20:22 | 37.15323 | -121.29177 | 10952 ft | 217 kts | 349° |
| 2026-05-03 20:23 | 37.16718 | -121.29893 | 10947 ft | 218 kts | 326° |
| 2026-05-03 20:23 | 37.17862 | -121.31114 | 10952 ft | 216 kts | 314° |
| 2026-05-03 20:23 | 37.18961 | -121.32394 | 10955 ft | 216 kts | 314° |
| 2026-05-03 20:23 | 37.20064 | -121.33673 | 10957 ft | 216 kts | 315° |
| 2026-05-03 20:24 | 37.21172 | -121.34956 | 10957 ft | 217 kts | 314° |
| 2026-05-03 20:24 | 37.22279 | -121.36243 | 10959 ft | 217 kts | 314° |
| 2026-05-03 20:24 | 37.23392 | -121.37537 | 10956 ft | 219 kts | 315° |
| 2026-05-03 20:24 | 37.24507 | -121.38839 | 10954 ft | 219 kts | 314° |
| 2026-05-03 20:25 | 37.25626 | -121.40131 | 10928 ft | 217 kts | 315° |
| 2026-05-03 20:25 | 37.26730 | -121.41411 | 10952 ft | 217 kts | 314° |
| 2026-05-03 20:25 | 37.27818 | -121.42688 | 10952 ft | 217 kts | 315° |
| 2026-05-03 20:25 | 37.28928 | -121.43977 | 10958 ft | 218 kts | 315° |
| 2026-05-03 20:26 | 37.30039 | -121.45274 | 10961 ft | 218 kts | 315° |
| 2026-05-03 20:26 | 37.31155 | -121.46572 | 10952 ft | 219 kts | 315° |
| 2026-05-03 20:26 | 37.32273 | -121.47875 | 10954 ft | 220 kts | 315° |
| 2026-05-03 20:26 | 37.33395 | -121.49182 | 10957 ft | 220 kts | 315° |
| 2026-05-03 20:27 | 37.34518 | -121.50492 | 10960 ft | 220 kts | 315° |
| 2026-05-03 20:27 | 37.35644 | -121.51805 | 10959 ft | 221 kts | 315° |
| 2026-05-03 20:27 | 37.36769 | -121.53119 | 10972 ft | 221 kts | 315° |
| 2026-05-03 20:27 | 37.37894 | -121.54432 | 10966 ft | 219 kts | 315° |
| 2026-05-03 20:28 | 37.39012 | -121.55734 | 10972 ft | 219 kts | 315° |
| 2026-05-03 20:28 | 37.40127 | -121.57044 | 10971 ft | 219 kts | 315° |
| 2026-05-03 20:28 | 37.41247 | -121.58357 | 10970 ft | 221 kts | 315° |
| 2026-05-03 20:28 | 37.42376 | -121.59673 | 10917 ft | 223 kts | 315° |
| 2026-05-03 20:29 | 37.43533 | -121.61027 | 10699 ft | 230 kts | 315° |
| 2026-05-03 20:29 | 37.44711 | -121.62406 | 10421 ft | 232 kts | 315° |
| 2026-05-03 20:29 | 37.45866 | -121.63765 | 10125 ft | 217 kts | 315° |
| 2026-05-03 20:29 | 37.46971 | -121.65060 | 9829 ft | 217 kts | 315° |
| 2026-05-03 20:30 | 37.48074 | -121.66350 | 9525 ft | 215 kts | 315° |
| 2026-05-03 20:30 | 37.49152 | -121.67626 | 9247 ft | 212 kts | 315° |
| 2026-05-03 20:30 | 37.50234 | -121.68887 | 8951 ft | 211 kts | 315° |
| 2026-05-03 20:30 | 37.51303 | -121.70141 | 8682 ft | 209 kts | 315° |
| 2026-05-03 20:31 | 37.52357 | -121.71382 | 8390 ft | 206 kts | 316° |
| 2026-05-03 20:31 | 37.53401 | -121.72603 | 8122 ft | 203 kts | 316° |
| 2026-05-03 20:31 | 37.54429 | -121.73818 | 7850 ft | 203 kts | 316° |
| 2026-05-03 20:31 | 37.55456 | -121.75025 | 7581 ft | 201 kts | 316° |
| 2026-05-03 20:32 | 37.56462 | -121.76212 | 7316 ft | 199 kts | 316° |
| 2026-05-03 20:32 | 37.57469 | -121.77393 | 7056 ft | 197 kts | 316° |
| 2026-05-03 20:32 | 37.58464 | -121.78565 | 6789 ft | 194 kts | 316° |
| 2026-05-03 20:32 | 37.59447 | -121.79725 | 6533 ft | 193 kts | 316° |
| 2026-05-03 20:33 | 37.60397 | -121.80943 | 6277 ft | 196 kts | 304° |
| 2026-05-03 20:33 | 37.60959 | -121.82478 | 6012 ft | 191 kts | 285° |
| 2026-05-03 20:33 | 37.61392 | -121.84061 | 5758 ft | 190 kts | 285° |
| 2026-05-03 20:33 | 37.61818 | -121.85609 | 5497 ft | 188 kts | 287° |
| 2026-05-03 20:34 | 37.62242 | -121.87156 | 5265 ft | 185 kts | 286° |
| 2026-05-03 20:34 | 37.62663 | -121.88677 | 5025 ft | 182 kts | 287° |
| 2026-05-03 20:34 | 37.63074 | -121.90166 | 4774 ft | 178 kts | 288° |
| 2026-05-03 20:34 | 37.63480 | -121.91638 | 4548 ft | 177 kts | 286° |
| 2026-05-03 20:35 | 37.63884 | -121.93107 | 4314 ft | 177 kts | 285° |
| 2026-05-03 20:35 | 37.64289 | -121.94572 | 4078 ft | 176 kts | 287° |
| 2026-05-03 20:35 | 37.64673 | -121.95951 | 3848 ft | 152 kts | 285° |
| 2026-05-03 20:35 | 37.65021 | -121.97228 | 3643 ft | 156 kts | 285° |
| 2026-05-03 20:36 | 37.65375 | -121.98537 | 3450 ft | 158 kts | 285° |
| 2026-05-03 20:36 | 37.65763 | -121.99814 | 3241 ft | 154 kts | 289° |
| 2026-05-03 20:36 | 37.66187 | -122.01084 | 3053 ft | 162 kts | 289° |
| 2026-05-03 20:36 | 37.66635 | -122.02411 | 2843 ft | 165 kts | 289° |
| 2026-05-03 20:37 | 37.67016 | -122.03563 | 2663 ft | 162 kts | 289° |
| 2026-05-03 20:37 | 37.67443 | -122.04882 | 2460 ft | 162 kts | 290° |
| 2026-05-03 20:37 | 37.67823 | -122.06053 | 2254 ft | 134 kts | 288° |
| 2026-05-03 20:37 | 37.68166 | -122.07124 | 2077 ft | 129 kts | 289° |
| 2026-05-03 20:38 | 37.68489 | -122.08128 | 2063 ft | 125 kts | 290° |
| 2026-05-03 20:38 | 37.68831 | -122.09184 | 1935 ft | 134 kts | 291° |
| 2026-05-03 20:38 | 37.69180 | -122.10265 | 1765 ft | 122 kts | 290° |
| 2026-05-03 20:38 | 37.69474 | -122.11175 | 1604 ft | 106 kts | 290° |
| 2026-05-03 20:39 | 37.69748 | -122.12021 | 1462 ft | 103 kts | 290° |
| 2026-05-03 20:39 | 37.70012 | -122.12832 | 1317 ft | 96 kts | 290° |
| 2026-05-03 20:39 | 37.70260 | -122.13598 | 1191 ft | 92 kts | 289° |
| 2026-05-03 20:39 | 37.70494 | -122.14327 | 1072 ft | 90 kts | 288° |
| 2026-05-03 20:40 | 37.70732 | -122.15069 | 948 ft | 91 kts | 290° |
| 2026-05-03 20:40 | 37.70974 | -122.15817 | 844 ft | 94 kts | 290° |
| 2026-05-03 20:40 | 37.71222 | -122.16581 | 709 ft | 95 kts | 290° |
| 2026-05-03 20:40 | 37.71475 | -122.17344 | 580 ft | 93 kts | 288° |
| 2026-05-03 20:41 | 37.71717 | -122.18104 | 438 ft | 94 kts | 290° |
| 2026-05-03 20:41 | 37.71959 | -122.18869 | 326 ft | 94 kts | 294° |
| 2026-05-03 20:41 | 37.72218 | -122.19615 | 198 ft | 91 kts | 291° |
| 2026-05-03 20:41 | 37.72445 | -122.20338 | 67 ft | 85 kts | 288° |
| 2026-05-03 20:42 | 37.72650 | -122.20994 | 8 ft | 71 kts | 290° |
| 2026-05-03 20:42 | 37.72779 | -122.21388 | 5 ft | 15 kts | 292° |
| 2026-05-03 20:42 | 37.72754 | -122.21457 | 4 ft | 15 kts | 204° |
| 2026-05-03 20:42 | 37.72626 | -122.21522 | 5 ft | 18 kts | 202° |
| 2026-05-03 20:43 | 37.72542 | -122.21552 | 5 ft | 8 kts | 144° |
| 2026-05-03 20:43 | 37.72488 | -122.21409 | 5 ft | 27 kts | 112° |
| 2026-05-03 20:43 | 37.72404 | -122.21151 | 5 ft | 35 kts | 113° |
| 2026-05-03 20:43 | 37.72309 | -122.20857 | 4 ft | 31 kts | 112° |
| 2026-05-03 20:44 | 37.72234 | -122.20659 | 3 ft | 16 kts | 146° |
| 2026-05-03 20:44 | 37.72165 | -122.20699 | 5 ft | 19 kts | 248° |
| 2026-05-03 20:44 | 37.72100 | -122.20891 | 11 ft | 24 kts | 250° |
| 2026-05-03 20:44 | 37.72048 | -122.21075 | 11 ft | 10 kts | 249° |
| 2026-05-03 20:45 | 37.72004 | -122.21213 | 6 ft | 21 kts | 249° |
| 2026-05-03 20:45 | 37.72002 | -122.21377 | 6 ft | 19 kts | 257° |
| 2026-05-03 20:45 | 37.71968 | -122.21494 | 6 ft | 11 kts | 290° |
| 2026-05-03 20:45 | 37.72030 | -122.21596 | 6 ft | 17 kts | 310° |
| 2026-05-03 20:46 | 37.72077 | -122.21686 | 6 ft | 8 kts | 250° |
| 2026-05-03 20:46 | 37.72070 | -122.21724 | 6 ft | 0 kts | 275° |